sensor_id;sensor_type;location;lat;lon;timestamp;temperature;humidity
76040;SHT30;64736;50.462;4.850;2023-02-28T00:00:28;-0.18;74.34
76040;SHT30;64736;50.462;4.850;2023-02-28T00:02:54;-0.08;73.91
76040;SHT30;64736;50.462;4.850;2023-02-28T00:05:21;-0.22;73.50
76040;SHT30;64736;50.462;4.850;2023-02-28T00:07:48;-0.41;74.69
76040;SHT30;64736;50.462;4.850;2023-02-28T00:12:47;-0.44;75.14
76040;SHT30;64736;50.462;4.850;2023-02-28T00:15:13;-0.25;75.19
76040;SHT30;64736;50.462;4.850;2023-02-28T00:17:39;-0.43;74.70
76040;SHT30;64736;50.462;4.850;2023-02-28T00:20:06;-0.50;75.47
76040;SHT30;64736;50.462;4.850;2023-02-28T00:22:42;-0.41;75.02
76040;SHT30;64736;50.462;4.850;2023-02-28T00:25:11;-0.52;75.28
76040;SHT30;64736;50.462;4.850;2023-02-28T00:27:38;-0.34;75.34
76040;SHT30;64736;50.462;4.850;2023-02-28T00:30:06;-0.36;75.30
76040;SHT30;64736;50.462;4.850;2023-02-28T00:32:32;-0.19;74.24
76040;SHT30;64736;50.462;4.850;2023-02-28T00:35:00;-0.15;74.07
76040;SHT30;64736;50.462;4.850;2023-02-28T00:37:25;-0.18;73.77
76040;SHT30;64736;50.462;4.850;2023-02-28T00:39:51;-0.30;74.34
76040;SHT30;64736;50.462;4.850;2023-02-28T00:42:17;-0.36;74.64
76040;SHT30;64736;50.462;4.850;2023-02-28T00:44:43;-0.29;74.57
76040;SHT30;64736;50.462;4.850;2023-02-28T00:47:08;-0.32;74.44
76040;SHT30;64736;50.462;4.850;2023-02-28T00:49:34;-0.53;74.45
76040;SHT30;64736;50.462;4.850;2023-02-28T00:52:00;-0.58;75.20
76040;SHT30;64736;50.462;4.850;2023-02-28T00:54:25;-0.66;75.91
76040;SHT30;64736;50.462;4.850;2023-02-28T00:56:51;-0.58;75.74
76040;SHT30;64736;50.462;4.850;2023-02-28T00:59:17;-0.46;75.03
76040;SHT30;64736;50.462;4.850;2023-02-28T01:01:45;-0.57;75.19
76040;SHT30;64736;50.462;4.850;2023-02-28T01:04:11;-0.37;75.00
76040;SHT30;64736;50.462;4.850;2023-02-28T01:06:38;-0.37;73.87
76040;SHT30;64736;50.462;4.850;2023-02-28T01:09:05;-0.71;75.15
76040;SHT30;64736;50.462;4.850;2023-02-28T01:11:31;-0.61;75.71
76040;SHT30;64736;50.462;4.850;2023-02-28T01:13:58;-0.63;75.40
76040;SHT30;64736;50.462;4.850;2023-02-28T01:16:24;-0.54;75.19
76040;SHT30;64736;50.462;4.850;2023-02-28T01:18:49;-0.58;75.77
76040;SHT30;64736;50.462;4.850;2023-02-28T01:21:17;-0.68;75.71
76040;SHT30;64736;50.462;4.850;2023-02-28T01:23:43;-0.54;75.73
76040;SHT30;64736;50.462;4.850;2023-02-28T01:26:15;-0.54;75.11
76040;SHT30;64736;50.462;4.850;2023-02-28T01:28:41;-0.63;75.02
76040;SHT30;64736;50.462;4.850;2023-02-28T01:31:08;-0.64;75.14
76040;SHT30;64736;50.462;4.850;2023-02-28T01:33:34;-0.67;75.83
76040;SHT30;64736;50.462;4.850;2023-02-28T01:36:11;-0.95;76.25
76040;SHT30;64736;50.462;4.850;2023-02-28T01:38:37;-1.08;76.75
76040;SHT30;64736;50.462;4.850;2023-02-28T01:41:03;-0.92;77.16
76040;SHT30;64736;50.462;4.850;2023-02-28T01:43:51;-1.09;77.25
76040;SHT30;64736;50.462;4.850;2023-02-28T01:46:18;-0.95;77.27
76040;SHT30;64736;50.462;4.850;2023-02-28T01:48:52;-0.80;76.74
76040;SHT30;64736;50.462;4.850;2023-02-28T01:54:07;-1.28;77.42
76040;SHT30;64736;50.462;4.850;2023-02-28T01:56:44;-1.08;78.04
76040;SHT30;64736;50.462;4.850;2023-02-28T01:59:13;-0.81;77.05
76040;SHT30;64736;50.462;4.850;2023-02-28T02:01:39;-0.83;76.36
76040;SHT30;64736;50.462;4.850;2023-02-28T02:04:05;-0.87;76.25
76040;SHT30;64736;50.462;4.850;2023-02-28T02:06:37;-0.84;75.97
76040;SHT30;64736;50.462;4.850;2023-02-28T02:09:03;-1.04;76.40
76040;SHT30;64736;50.462;4.850;2023-02-28T02:11:30;-1.12;77.33
76040;SHT30;64736;50.462;4.850;2023-02-28T02:14:13;-1.20;77.78
76040;SHT30;64736;50.462;4.850;2023-02-28T02:16:51;-1.16;77.38
76040;SHT30;64736;50.462;4.850;2023-02-28T02:22:43;-0.85;76.55
76040;SHT30;64736;50.462;4.850;2023-02-28T02:28:25;-1.13;77.14
76040;SHT30;64736;50.462;4.850;2023-02-28T02:34:24;-1.06;77.26
76040;SHT30;64736;50.462;4.850;2023-02-28T02:42:31;-0.89;76.20
76040;SHT30;64736;50.462;4.850;2023-02-28T02:45:12;-0.94;76.56
76040;SHT30;64736;50.462;4.850;2023-02-28T02:47:42;-1.20;77.25
76040;SHT30;64736;50.462;4.850;2023-02-28T02:50:17;-1.24;77.87
76040;SHT30;64736;50.462;4.850;2023-02-28T02:52:53;-1.22;77.42
76040;SHT30;64736;50.462;4.850;2023-02-28T02:55:24;-1.29;78.22
76040;SHT30;64736;50.462;4.850;2023-02-28T02:58:01;-1.05;77.42
76040;SHT30;64736;50.462;4.850;2023-02-28T03:00:35;-1.18;76.69
76040;SHT30;64736;50.462;4.850;2023-02-28T03:03:04;-1.25;77.31
76040;SHT30;64736;50.462;4.850;2023-02-28T03:05:50;-1.16;78.03
76040;SHT30;64736;50.462;4.850;2023-02-28T03:08:16;-1.22;77.57
76040;SHT30;64736;50.462;4.850;2023-02-28T03:10:49;-1.26;77.28
76040;SHT30;64736;50.462;4.850;2023-02-28T03:19:17;-1.29;78.25
76040;SHT30;64736;50.462;4.850;2023-02-28T03:24:32;-1.38;77.93
76040;SHT30;64736;50.462;4.850;2023-02-28T03:33:15;-1.35;78.63
76040;SHT30;64736;50.462;4.850;2023-02-28T03:35:58;-1.38;78.65
76040;SHT30;64736;50.462;4.850;2023-02-28T03:38:33;-1.54;78.90
76040;SHT30;64736;50.462;4.850;2023-02-28T03:41:18;-1.47;79.01
76040;SHT30;64736;50.462;4.850;2023-02-28T03:44:01;-1.54;78.61
76040;SHT30;64736;50.462;4.850;2023-02-28T03:46:32;-1.62;79.37
76040;SHT30;64736;50.462;4.850;2023-02-28T03:49:16;-1.40;78.90
76040;SHT30;64736;50.462;4.850;2023-02-28T03:51:45;-1.78;78.94
76040;SHT30;64736;50.462;4.850;2023-02-28T03:54:15;-1.66;79.34
76040;SHT30;64736;50.462;4.850;2023-02-28T03:59:42;-1.25;77.93
76040;SHT30;64736;50.462;4.850;2023-02-28T04:02:09;-1.26;77.84
76040;SHT30;64736;50.462;4.850;2023-02-28T04:04:35;-1.50;77.89
76040;SHT30;64736;50.462;4.850;2023-02-28T04:07:06;-1.33;78.28
76040;SHT30;64736;50.462;4.850;2023-02-28T04:09:33;-1.38;78.23
76040;SHT30;64736;50.462;4.850;2023-02-28T04:11:59;-1.31;78.07
76040;SHT30;64736;50.462;4.850;2023-02-28T04:14:25;-1.28;77.60
76040;SHT30;64736;50.462;4.850;2023-02-28T04:16:54;-1.35;77.16
76040;SHT30;64736;50.462;4.850;2023-02-28T04:19:20;-1.36;77.54
76040;SHT30;64736;50.462;4.850;2023-02-28T04:21:54;-1.47;77.87
76040;SHT30;64736;50.462;4.850;2023-02-28T04:24:26;-1.36;77.42
76040;SHT30;64736;50.462;4.850;2023-02-28T04:26:54;-1.59;78.28
76040;SHT30;64736;50.462;4.850;2023-02-28T04:29:25;-1.47;78.38
76040;SHT30;64736;50.462;4.850;2023-02-28T04:31:51;-1.71;78.21
76040;SHT30;64736;50.462;4.850;2023-02-28T04:34:24;-1.84;79.32
76040;SHT30;64736;50.462;4.850;2023-02-28T04:36:50;-1.83;79.40
76040;SHT30;64736;50.462;4.850;2023-02-28T04:39:22;-1.59;79.39
76040;SHT30;64736;50.462;4.850;2023-02-28T04:41:48;-1.74;78.33
76040;SHT30;64736;50.462;4.850;2023-02-28T04:44:14;-1.94;79.34
76040;SHT30;64736;50.462;4.850;2023-02-28T04:46:40;-1.88;79.18
76040;SHT30;64736;50.462;4.850;2023-02-28T04:49:06;-1.75;79.37
76040;SHT30;64736;50.462;4.850;2023-02-28T04:51:31;-1.73;79.11
76040;SHT30;64736;50.462;4.850;2023-02-28T04:53:57;-1.68;79.06
76040;SHT30;64736;50.462;4.850;2023-02-28T04:56:23;-1.62;78.48
76040;SHT30;64736;50.462;4.850;2023-02-28T04:58:49;-1.53;78.65
76040;SHT30;64736;50.462;4.850;2023-02-28T05:01:25;-1.73;78.43
76040;SHT30;64736;50.462;4.850;2023-02-28T05:03:53;-1.62;78.88
76040;SHT30;64736;50.462;4.850;2023-02-28T05:06:20;-1.88;78.56
76040;SHT30;64736;50.462;4.850;2023-02-28T05:08:46;-1.99;79.71
76040;SHT30;64736;50.462;4.850;2023-02-28T05:11:33;-1.63;80.02
76040;SHT30;64736;50.462;4.850;2023-02-28T05:14:04;-1.33;78.66
76040;SHT30;64736;50.462;4.850;2023-02-28T05:16:31;-1.64;78.52
76040;SHT30;64736;50.462;4.850;2023-02-28T05:18:57;-1.42;78.80
76040;SHT30;64736;50.462;4.850;2023-02-28T05:23:49;-1.73;78.98
76040;SHT30;64736;50.462;4.850;2023-02-28T05:26:15;-1.36;77.80
76040;SHT30;64736;50.462;4.850;2023-02-28T05:28:41;-1.81;78.66
76040;SHT30;64736;50.462;4.850;2023-02-28T05:31:11;-1.53;78.12
76040;SHT30;64736;50.462;4.850;2023-02-28T05:33:37;-1.71;78.95
76040;SHT30;64736;50.462;4.850;2023-02-28T05:36:03;-1.77;78.86
76040;SHT30;64736;50.462;4.850;2023-02-28T05:38:29;-1.73;78.93
76040;SHT30;64736;50.462;4.850;2023-02-28T05:40:55;-2.01;79.07
76040;SHT30;64736;50.462;4.850;2023-02-28T05:43:22;-1.80;78.93
76040;SHT30;64736;50.462;4.850;2023-02-28T05:45:48;-1.71;79.28
76040;SHT30;64736;50.462;4.850;2023-02-28T05:48:15;-1.93;79.22
76040;SHT30;64736;50.462;4.850;2023-02-28T05:50:41;-1.87;79.40
76040;SHT30;64736;50.462;4.850;2023-02-28T05:53:08;-1.62;78.08
76040;SHT30;64736;50.462;4.850;2023-02-28T05:55:34;-1.71;78.11
76040;SHT30;64736;50.462;4.850;2023-02-28T05:58:01;-1.77;79.26
76040;SHT30;64736;50.462;4.850;2023-02-28T06:00:27;-1.80;78.07
76040;SHT30;64736;50.462;4.850;2023-02-28T06:02:53;-1.77;78.69
76040;SHT30;64736;50.462;4.850;2023-02-28T06:05:22;-1.83;79.05
76040;SHT30;64736;50.462;4.850;2023-02-28T06:07:47;-1.91;79.28
76040;SHT30;64736;50.462;4.850;2023-02-28T06:10:13;-1.63;78.93
76040;SHT30;64736;50.462;4.850;2023-02-28T06:12:40;-1.46;78.30
76040;SHT30;64736;50.462;4.850;2023-02-28T06:15:10;-1.73;78.66
76040;SHT30;64736;50.462;4.850;2023-02-28T06:17:37;-1.62;78.60
76040;SHT30;64736;50.462;4.850;2023-02-28T06:20:04;-1.36;77.80
76040;SHT30;64736;50.462;4.850;2023-02-28T06:22:30;-1.59;78.24
76040;SHT30;64736;50.462;4.850;2023-02-28T06:24:56;-1.40;77.51
76040;SHT30;64736;50.462;4.850;2023-02-28T06:27:23;-1.54;77.44
76040;SHT30;64736;50.462;4.850;2023-02-28T06:29:48;-1.66;78.35
76040;SHT30;64736;50.462;4.850;2023-02-28T06:32:14;-1.71;78.67
76040;SHT30;64736;50.462;4.850;2023-02-28T06:34:40;-1.74;78.67
76040;SHT30;64736;50.462;4.850;2023-02-28T06:37:05;-1.85;79.13
76040;SHT30;64736;50.462;4.850;2023-02-28T06:39:31;-1.90;79.16
76040;SHT30;64736;50.462;4.850;2023-02-28T06:41:57;-1.70;78.68
76040;SHT30;64736;50.462;4.850;2023-02-28T06:44:23;-1.74;78.84
76040;SHT30;64736;50.462;4.850;2023-02-28T06:46:49;-1.64;78.61
76040;SHT30;64736;50.462;4.850;2023-02-28T06:49:15;-1.94;79.00
76040;SHT30;64736;50.462;4.850;2023-02-28T06:51:42;-1.78;79.22
76040;SHT30;64736;50.462;4.850;2023-02-28T06:54:12;-1.81;79.31
76040;SHT30;64736;50.462;4.850;2023-02-28T06:56:37;-1.91;78.86
76040;SHT30;64736;50.462;4.850;2023-02-28T06:59:04;-1.90;79.07
76040;SHT30;64736;50.462;4.850;2023-02-28T07:01:30;-1.68;78.40
76040;SHT30;64736;50.462;4.850;2023-02-28T07:03:58;-1.88;78.77
76040;SHT30;64736;50.462;4.850;2023-02-28T07:06:25;-1.62;78.77
76040;SHT30;64736;50.462;4.850;2023-02-28T07:08:52;-1.70;78.82
76040;SHT30;64736;50.462;4.850;2023-02-28T07:11:20;-1.91;78.90
76040;SHT30;64736;50.462;4.850;2023-02-28T07:13:49;-1.88;79.68
76040;SHT30;64736;50.462;4.850;2023-02-28T07:16:14;-1.87;79.52
76040;SHT30;64736;50.462;4.850;2023-02-28T07:18:40;-1.93;79.96
76040;SHT30;64736;50.462;4.850;2023-02-28T07:21:08;-2.05;80.06
76040;SHT30;64736;50.462;4.850;2023-02-28T07:23:35;-1.74;80.02
76040;SHT30;64736;50.462;4.850;2023-02-28T07:26:04;-1.70;79.36
76040;SHT30;64736;50.462;4.850;2023-02-28T07:28:30;-1.56;78.87
76040;SHT30;64736;50.462;4.850;2023-02-28T07:30:56;-1.63;78.79
76040;SHT30;64736;50.462;4.850;2023-02-28T07:33:21;-1.70;78.87
76040;SHT30;64736;50.462;4.850;2023-02-28T07:35:49;-1.95;80.45
76040;SHT30;64736;50.462;4.850;2023-02-28T07:38:15;-1.67;80.47
76040;SHT30;64736;50.462;4.850;2023-02-28T07:40:41;-1.64;79.40
76040;SHT30;64736;50.462;4.850;2023-02-28T07:43:06;-1.63;79.04
76040;SHT30;64736;50.462;4.850;2023-02-28T07:45:32;-1.45;79.02
76040;SHT30;64736;50.462;4.850;2023-02-28T07:48:00;-1.50;78.76
76040;SHT30;64736;50.462;4.850;2023-02-28T07:50:25;-1.54;79.38
76040;SHT30;64736;50.462;4.850;2023-02-28T07:52:54;-1.32;79.12
76040;SHT30;64736;50.462;4.850;2023-02-28T07:55:20;-1.46;78.64
76040;SHT30;64736;50.462;4.850;2023-02-28T07:57:46;-1.50;78.97
76040;SHT30;64736;50.462;4.850;2023-02-28T08:00:12;-1.20;77.90
76040;SHT30;64736;50.462;4.850;2023-02-28T08:02:39;-0.89;75.53
76040;SHT30;64736;50.462;4.850;2023-02-28T08:05:06;-0.76;74.60
76040;SHT30;64736;50.462;4.850;2023-02-28T08:07:32;-0.74;74.93
76040;SHT30;64736;50.462;4.850;2023-02-28T08:09:58;-0.66;74.26
76040;SHT30;64736;50.462;4.850;2023-02-28T08:12:25;-0.60;74.24
76040;SHT30;64736;50.462;4.850;2023-02-28T08:14:51;-0.71;74.29
76040;SHT30;64736;50.462;4.850;2023-02-28T08:17:16;-0.68;74.82
76040;SHT30;64736;50.462;4.850;2023-02-28T08:19:42;-0.61;75.01
76040;SHT30;64736;50.462;4.850;2023-02-28T08:22:10;-0.66;74.57
76040;SHT30;64736;50.462;4.850;2023-02-28T08:24:36;-0.61;74.92
76040;SHT30;64736;50.462;4.850;2023-02-28T08:27:01;-0.50;74.23
76040;SHT30;64736;50.462;4.850;2023-02-28T08:29:27;-0.47;74.27
76040;SHT30;64736;50.462;4.850;2023-02-28T08:31:53;-0.34;74.23
76040;SHT30;64736;50.462;4.850;2023-02-28T08:34:18;-0.22;73.50
76040;SHT30;64736;50.462;4.850;2023-02-28T08:36:44;-0.26;73.57
76040;SHT30;64736;50.462;4.850;2023-02-28T08:39:11;-0.13;72.03
76040;SHT30;64736;50.462;4.850;2023-02-28T08:41:37;-0.12;71.65
76040;SHT30;64736;50.462;4.850;2023-02-28T08:44:03;-0.08;72.09
76040;SHT30;64736;50.462;4.850;2023-02-28T08:46:29;-0.03;72.64
76040;SHT30;64736;50.462;4.850;2023-02-28T08:48:56;-0.01;71.12
76040;SHT30;64736;50.462;4.850;2023-02-28T08:51:26;0.05;71.10
76040;SHT30;64736;50.462;4.850;2023-02-28T08:53:53;0.06;70.70
76040;SHT30;64736;50.462;4.850;2023-02-28T08:56:20;0.11;70.60
76040;SHT30;64736;50.462;4.850;2023-02-28T08:58:47;0.16;70.32
76040;SHT30;64736;50.462;4.850;2023-02-28T09:01:18;0.16;69.76
76040;SHT30;64736;50.462;4.850;2023-02-28T09:03:45;0.11;68.70
76040;SHT30;64736;50.462;4.850;2023-02-28T09:06:11;0.22;68.91
76040;SHT30;64736;50.462;4.850;2023-02-28T09:08:38;0.26;68.45
76040;SHT30;64736;50.462;4.850;2023-02-28T09:11:04;0.25;68.33
76040;SHT30;64736;50.462;4.850;2023-02-28T09:13:30;0.36;67.54
76040;SHT30;64736;50.462;4.850;2023-02-28T09:16:02;0.46;67.86
76040;SHT30;64736;50.462;4.850;2023-02-28T09:18:29;0.47;67.89
76040;SHT30;64736;50.462;4.850;2023-02-28T09:20:55;0.46;67.02
76040;SHT30;64736;50.462;4.850;2023-02-28T09:23:21;0.50;66.74
76040;SHT30;64736;50.462;4.850;2023-02-28T09:25:53;0.56;66.29
76040;SHT30;64736;50.462;4.850;2023-02-28T09:28:19;0.68;65.86
76040;SHT30;64736;50.462;4.850;2023-02-28T09:30:47;0.78;65.57
76040;SHT30;64736;50.462;4.850;2023-02-28T09:33:13;0.83;65.12
76040;SHT30;64736;50.462;4.850;2023-02-28T09:35:39;0.73;65.12
76040;SHT30;64736;50.462;4.850;2023-02-28T09:38:05;0.70;65.20
76040;SHT30;64736;50.462;4.850;2023-02-28T09:40:37;0.83;64.74
76040;SHT30;64736;50.462;4.850;2023-02-28T09:43:04;0.92;64.03
76040;SHT30;64736;50.462;4.850;2023-02-28T09:45:33;0.95;63.98
76040;SHT30;64736;50.462;4.850;2023-02-28T09:48:17;0.89;64.33
76040;SHT30;64736;50.462;4.850;2023-02-28T09:50:50;0.99;63.49
76040;SHT30;64736;50.462;4.850;2023-02-28T09:53:26;1.08;65.13
76040;SHT30;64736;50.462;4.850;2023-02-28T09:56:39;1.14;64.82
76040;SHT30;64736;50.462;4.850;2023-02-28T10:02:04;2.08;62.40
76040;SHT30;64736;50.462;4.850;2023-02-28T10:04:50;2.15;60.56
76040;SHT30;64736;50.462;4.850;2023-02-28T10:07:43;3.43;58.91
76040;SHT30;64736;50.462;4.850;2023-02-28T10:12:54;2.29;60.66
76040;SHT30;64736;50.462;4.850;2023-02-28T10:15:24;2.39;59.03
76040;SHT30;64736;50.462;4.850;2023-02-28T10:17:58;1.66;62.22
76040;SHT30;64736;50.462;4.850;2023-02-28T10:20:27;1.50;62.53
76040;SHT30;64736;50.462;4.850;2023-02-28T10:23:21;1.42;62.04
76040;SHT30;64736;50.462;4.850;2023-02-28T10:25:58;2.24;61.12
76040;SHT30;64736;50.462;4.850;2023-02-28T10:28:28;2.94;58.72
76040;SHT30;64736;50.462;4.850;2023-02-28T10:30:55;2.67;58.69
76040;SHT30;64736;50.462;4.850;2023-02-28T10:33:31;2.84;58.41
76040;SHT30;64736;50.462;4.850;2023-02-28T10:35:57;2.64;59.29
76040;SHT30;64736;50.462;4.850;2023-02-28T10:38:26;2.31;60.04
76040;SHT30;64736;50.462;4.850;2023-02-28T10:41:07;3.22;58.15
76040;SHT30;64736;50.462;4.850;2023-02-28T10:43:34;2.17;59.47
76040;SHT30;64736;50.462;4.850;2023-02-28T10:48:41;2.60;57.86
76040;SHT30;64736;50.462;4.850;2023-02-28T10:51:12;3.08;56.63
76040;SHT30;64736;50.462;4.850;2023-02-28T10:53:54;3.35;55.81
76040;SHT30;64736;50.462;4.850;2023-02-28T10:56:24;3.17;55.12
76040;SHT30;64736;50.462;4.850;2023-02-28T11:01:45;2.96;54.73
76040;SHT30;64736;50.462;4.850;2023-02-28T11:07:01;3.63;53.59
76040;SHT30;64736;50.462;4.850;2023-02-28T11:09:49;3.62;52.83
76040;SHT30;64736;50.462;4.850;2023-02-28T11:12:36;4.21;52.45
76040;SHT30;64736;50.462;4.850;2023-02-28T11:15:29;5.06;49.11
76040;SHT30;64736;50.462;4.850;2023-02-28T11:18:02;4.96;46.84
76040;SHT30;64736;50.462;4.850;2023-02-28T11:20:33;5.21;45.33
76040;SHT30;64736;50.462;4.850;2023-02-28T11:23:01;4.93;45.83
76040;SHT30;64736;50.462;4.850;2023-02-28T11:25:37;5.00;46.30
76040;SHT30;64736;50.462;4.850;2023-02-28T11:28:05;4.21;46.50
76040;SHT30;64736;50.462;4.850;2023-02-28T11:30:40;3.67;47.05
76040;SHT30;64736;50.462;4.850;2023-02-28T11:33:22;3.90;48.14
76040;SHT30;64736;50.462;4.850;2023-02-28T11:35:49;3.35;48.74
76040;SHT30;64736;50.462;4.850;2023-02-28T11:38:15;3.80;48.79
76040;SHT30;64736;50.462;4.850;2023-02-28T11:43:57;3.00;50.19
76040;SHT30;64736;50.462;4.850;2023-02-28T11:46:52;3.00;50.02
76040;SHT30;64736;50.462;4.850;2023-02-28T11:49:45;3.00;49.30
76040;SHT30;64736;50.462;4.850;2023-02-28T11:52:25;2.98;49.66
76040;SHT30;64736;50.462;4.850;2023-02-28T11:55:19;3.15;48.49
76040;SHT30;64736;50.462;4.850;2023-02-28T12:00:38;3.32;48.31
76040;SHT30;64736;50.462;4.850;2023-02-28T12:03:13;3.60;46.99
76040;SHT30;64736;50.462;4.850;2023-02-28T12:06:01;3.46;47.48
76040;SHT30;64736;50.462;4.850;2023-02-28T12:08:56;3.89;47.36
76040;SHT30;64736;50.462;4.850;2023-02-28T12:11:56;3.94;47.04
76040;SHT30;64736;50.462;4.850;2023-02-28T12:20:05;3.82;48.57
76040;SHT30;64736;50.462;4.850;2023-02-28T12:22:53;4.59;46.63
76040;SHT30;64736;50.462;4.850;2023-02-28T12:28:15;3.72;45.91
76040;SHT30;64736;50.462;4.850;2023-02-28T12:31:01;4.48;43.34
76040;SHT30;64736;50.462;4.850;2023-02-28T12:33:35;5.45;40.33
76040;SHT30;64736;50.462;4.850;2023-02-28T12:36:05;4.45;42.57
76040;SHT30;64736;50.462;4.850;2023-02-28T12:38:47;4.06;42.86
76040;SHT30;64736;50.462;4.850;2023-02-28T12:41:18;4.59;41.14
76040;SHT30;64736;50.462;4.850;2023-02-28T12:46:54;4.58;40.88
76040;SHT30;64736;50.462;4.850;2023-02-28T12:51:59;4.73;40.84
76040;SHT30;64736;50.462;4.850;2023-02-28T12:57:25;6.78;38.45
76040;SHT30;64736;50.462;4.850;2023-02-28T13:00:04;5.34;39.03
76040;SHT30;64736;50.462;4.850;2023-02-28T13:11:02;5.48;41.85
76040;SHT30;64736;50.462;4.850;2023-02-28T13:13:30;5.65;41.35
76040;SHT30;64736;50.462;4.850;2023-02-28T13:16:08;4.38;42.64
76040;SHT30;64736;50.462;4.850;2023-02-28T13:18:52;4.83;42.48
76040;SHT30;64736;50.462;4.850;2023-02-28T13:21:42;3.98;44.49
76040;SHT30;64736;50.462;4.850;2023-02-28T13:24:08;4.77;42.79
76040;SHT30;64736;50.462;4.850;2023-02-28T13:39:57;5.41;40.98
76040;SHT30;64736;50.462;4.850;2023-02-28T13:47:52;5.92;39.82
76040;SHT30;64736;50.462;4.850;2023-02-28T13:56:01;5.65;38.99
76040;SHT30;64736;50.462;4.850;2023-02-28T14:01:41;5.83;38.67
76040;SHT30;64736;50.462;4.850;2023-02-28T14:06:37;5.38;39.29
76040;SHT30;64736;50.462;4.850;2023-02-28T14:09:27;5.82;39.25
76040;SHT30;64736;50.462;4.850;2023-02-28T14:11:55;5.34;40.12
76040;SHT30;64736;50.462;4.850;2023-02-28T14:17:15;5.82;39.96
76040;SHT30;64736;50.462;4.850;2023-02-28T14:20:02;5.83;40.10
76040;SHT30;64736;50.462;4.850;2023-02-28T14:28:01;5.78;40.20
76040;SHT30;64736;50.462;4.850;2023-02-28T14:30:53;6.13;39.46
76040;SHT30;64736;50.462;4.850;2023-02-28T14:36:36;5.62;40.28
76040;SHT30;64736;50.462;4.850;2023-02-28T14:39:12;5.45;40.37
76040;SHT30;64736;50.462;4.850;2023-02-28T14:41:41;5.63;40.83
76040;SHT30;64736;50.462;4.850;2023-02-28T14:44:27;5.73;40.10
76040;SHT30;64736;50.462;4.850;2023-02-28T14:46:55;5.45;40.46
76040;SHT30;64736;50.462;4.850;2023-02-28T14:49:34;5.69;39.86
76040;SHT30;64736;50.462;4.850;2023-02-28T14:52:19;5.30;40.95
76040;SHT30;64736;50.462;4.850;2023-02-28T14:54:46;4.89;41.06
76040;SHT30;64736;50.462;4.850;2023-02-28T14:57:40;4.65;42.07
76040;SHT30;64736;50.462;4.850;2023-02-28T15:02:41;4.72;41.70
76040;SHT30;64736;50.462;4.850;2023-02-28T15:08:11;4.52;42.36
76040;SHT30;64736;50.462;4.850;2023-02-28T15:10:40;4.72;41.70
76040;SHT30;64736;50.462;4.850;2023-02-28T15:13:13;4.49;43.01
76040;SHT30;64736;50.462;4.850;2023-02-28T15:15:54;4.76;42.78
76040;SHT30;64736;50.462;4.850;2023-02-28T15:19:28;4.46;42.99
76040;SHT30;64736;50.462;4.850;2023-02-28T15:21:27;4.44;43.00
76040;SHT30;64736;50.462;4.850;2023-02-28T15:24:05;4.49;43.35
76040;SHT30;64736;50.462;4.850;2023-02-28T15:26:40;4.42;43.14
76040;SHT30;64736;50.462;4.850;2023-02-28T15:29:13;4.49;43.11
76040;SHT30;64736;50.462;4.850;2023-02-28T15:31:51;4.45;43.17
76040;SHT30;64736;50.462;4.850;2023-02-28T15:34:42;4.46;42.93
76040;SHT30;64736;50.462;4.850;2023-02-28T15:39:58;4.54;43.22
76040;SHT30;64736;50.462;4.850;2023-02-28T15:42:30;4.46;43.01
76040;SHT30;64736;50.462;4.850;2023-02-28T15:44:57;4.45;43.05
76040;SHT30;64736;50.462;4.850;2023-02-28T15:47:27;4.37;43.39
76040;SHT30;64736;50.462;4.850;2023-02-28T15:49:58;4.44;43.58
76040;SHT30;64736;50.462;4.850;2023-02-28T15:55:20;4.37;43.95
76040;SHT30;64736;50.462;4.850;2023-02-28T15:57:52;4.15;44.12
76040;SHT30;64736;50.462;4.850;2023-02-28T16:00:22;4.21;44.53
76040;SHT30;64736;50.462;4.850;2023-02-28T16:02:49;4.17;45.02
76040;SHT30;64736;50.462;4.850;2023-02-28T16:05:21;4.14;44.90
76040;SHT30;64736;50.462;4.850;2023-02-28T16:07:55;4.18;45.02
76040;SHT30;64736;50.462;4.850;2023-02-28T16:10:22;4.01;45.17
76040;SHT30;64736;50.462;4.850;2023-02-28T16:12:53;4.00;45.31
76040;SHT30;64736;50.462;4.850;2023-02-28T16:17:48;3.97;46.26
76040;SHT30;64736;50.462;4.850;2023-02-28T16:20:23;3.96;46.88
76040;SHT30;64736;50.462;4.850;2023-02-28T16:22:49;3.94;47.31
76040;SHT30;64736;50.462;4.850;2023-02-28T16:25:17;3.86;47.73
76040;SHT30;64736;50.462;4.850;2023-02-28T16:27:46;3.91;48.03
76040;SHT30;64736;50.462;4.850;2023-02-28T16:30:24;3.67;48.78
76040;SHT30;64736;50.462;4.850;2023-02-28T16:32:50;3.59;49.29
76040;SHT30;64736;50.462;4.850;2023-02-28T16:35:17;3.66;49.23
76040;SHT30;64736;50.462;4.850;2023-02-28T16:37:44;3.67;49.61
76040;SHT30;64736;50.462;4.850;2023-02-28T16:40:18;3.67;50.01
76040;SHT30;64736;50.462;4.850;2023-02-28T16:42:47;3.51;49.89
76040;SHT30;64736;50.462;4.850;2023-02-28T16:45:20;3.46;50.13
76040;SHT30;64736;50.462;4.850;2023-02-28T16:47:47;3.46;50.16
76040;SHT30;64736;50.462;4.850;2023-02-28T16:50:15;3.40;50.51
76040;SHT30;64736;50.462;4.850;2023-02-28T16:52:44;3.40;50.09
76040;SHT30;64736;50.462;4.850;2023-02-28T16:55:10;3.35;50.50
76040;SHT30;64736;50.462;4.850;2023-02-28T16:57:36;3.40;50.65
76040;SHT30;64736;50.462;4.850;2023-02-28T17:00:04;3.28;51.07
76040;SHT30;64736;50.462;4.850;2023-02-28T17:02:34;3.27;50.92
76040;SHT30;64736;50.462;4.850;2023-02-28T17:05:00;3.29;50.90
76040;SHT30;64736;50.462;4.850;2023-02-28T17:07:25;3.18;51.29
76040;SHT30;64736;50.462;4.850;2023-02-28T17:09:51;3.18;51.75
76040;SHT30;64736;50.462;4.850;2023-02-28T17:12:17;3.15;51.55
76040;SHT30;64736;50.462;4.850;2023-02-28T17:14:43;3.14;51.58
76040;SHT30;64736;50.462;4.850;2023-02-28T17:17:19;3.10;51.63
76040;SHT30;64736;50.462;4.850;2023-02-28T17:19:47;3.05;51.97
76040;SHT30;64736;50.462;4.850;2023-02-28T17:22:13;3.00;52.16
76040;SHT30;64736;50.462;4.850;2023-02-28T17:24:39;3.03;52.29
76040;SHT30;64736;50.462;4.850;2023-02-28T17:27:05;2.94;52.61
76040;SHT30;64736;50.462;4.850;2023-02-28T17:29:33;3.01;52.08
76040;SHT30;64736;50.462;4.850;2023-02-28T17:31:59;2.94;52.50
76040;SHT30;64736;50.462;4.850;2023-02-28T17:34:24;2.94;52.60
76040;SHT30;64736;50.462;4.850;2023-02-28T17:36:51;2.86;52.79
76040;SHT30;64736;50.462;4.850;2023-02-28T17:39:18;2.86;53.57
76040;SHT30;64736;50.462;4.850;2023-02-28T17:41:53;2.76;53.82
76040;SHT30;64736;50.462;4.850;2023-02-28T17:44:20;2.72;54.07
76040;SHT30;64736;50.462;4.850;2023-02-28T17:46:47;2.66;54.11
76040;SHT30;64736;50.462;4.850;2023-02-28T17:49:15;2.66;54.54
76040;SHT30;64736;50.462;4.850;2023-02-28T17:51:41;2.60;54.66
76040;SHT30;64736;50.462;4.850;2023-02-28T17:54:07;2.69;54.35
76040;SHT30;64736;50.462;4.850;2023-02-28T17:56:34;2.57;54.57
76040;SHT30;64736;50.462;4.850;2023-02-28T17:59:00;2.49;54.87
76040;SHT30;64736;50.462;4.850;2023-02-28T18:01:26;2.48;54.94
76040;SHT30;64736;50.462;4.850;2023-02-28T18:03:52;2.46;55.28
76040;SHT30;64736;50.462;4.850;2023-02-28T18:06:34;2.45;55.84
76040;SHT30;64736;50.462;4.850;2023-02-28T18:09:00;2.32;56.29
76040;SHT30;64736;50.462;4.850;2023-02-28T18:11:26;2.31;56.28
76040;SHT30;64736;50.462;4.850;2023-02-28T18:14:08;2.29;56.53
76040;SHT30;64736;50.462;4.850;2023-02-28T18:16:34;2.29;56.56
76040;SHT30;64736;50.462;4.850;2023-02-28T18:18:59;2.35;56.62